Time,TemperatureF,DewpointF,PressureIn,WindDirection,WindDirectionDegrees,WindSpeedMPH,WindSpeedGustMPH,Humidity,HourlyPrecipIn,Conditions,Clouds,dailyrainin,SoftwareType,DateUTC
2013-05-01 00:13:00,49.7,35.0,30.27,NW,306,0.0,-999.0,58,-99.99,,,0.00,weatherlink.com 1.10,2013-05-01 04:13:00,
2013-05-01 00:28:00,49.7,34.0,30.27,NW,306,0.0,-999.0,56,-99.99,,,0.00,weatherlink.com 1.10,2013-05-01 04:28:00,
2013-05-01 00:43:00,50.3,32.0,30.27,North,349,0.0,-999.0,50,-99.99,,,0.00,weatherlink.com 1.10,2013-05-01 04:43:00,
2013-05-01 00:59:00,51.8,33.0,30.28,North,349,0.0,-999.0,49,-99.99,,,0.00,weatherlink.com 1.10,2013-05-01 04:59:00,
2013-05-01 01:14:00,50.1,34.0,30.28,North,349,0.0,-999.0,54,-99.99,,,0.00,weatherlink.com 1.10,2013-05-01 05:14:00,
2013-05-01 01:29:00,48.8,34.0,30.29,North,349,0.0,-999.0,56,-99.99,,,0.00,weatherlink.com 1.10,2013-05-01 05:29:00,
2013-05-01 01:44:00,48.7,34.0,30.30,North,349,0.0,-999.0,58,-99.99,,,0.00,weatherlink.com 1.10,2013-05-01 05:44:00,
2013-05-01 01:59:00,48.1,34.0,30.30,North,349,0.0,-999.0,58,-99.99,,,0.00,weatherlink.com 1.10,2013-05-01 05:59:00,
2013-05-01 02:14:00,48.5,34.0,30.31,North,349,0.0,-999.0,58,-99.99,,,0.00,weatherlink.com 1.10,2013-05-01 06:14:00,
2013-05-01 02:29:00,48.3,35.0,30.31,North,349,0.0,-999.0,60,-99.99,,,0.00,weatherlink.com 1.10,2013-05-01 06:29:00,
2013-05-01 02:44:00,46.3,35.0,30.32,North,349,0.0,-999.0,64,-99.99,,,0.00,weatherlink.com 1.10,2013-05-01 06:44:00,
2013-05-01 02:59:00,46.6,34.0,30.32,North,349,0.0,-999.0,63,-99.99,,,0.00,weatherlink.com 1.10,2013-05-01 06:59:00,
2013-05-01 03:14:00,46.3,34.0,30.33,North,349,0.0,-999.0,63,-99.99,,,0.00,weatherlink.com 1.10,2013-05-01 07:14:00,
2013-05-01 03:29:00,45.5,34.0,30.33,North,349,0.0,-999.0,64,-99.99,,,0.00,weatherlink.com 1.10,2013-05-01 07:29:00,
2013-05-01 03:44:00,44.6,34.0,30.34,North,349,0.0,-999.0,66,-99.99,,,0.00,weatherlink.com 1.10,2013-05-01 07:44:00,
2013-05-01 03:59:00,44.9,34.0,30.34,North,349,0.0,-999.0,66,-99.99,,,0.00,weatherlink.com 1.10,2013-05-01 07:59:00,
2013-05-01 04:14:00,44.6,34.0,30.35,North,349,0.0,-999.0,66,-99.99,,,0.00,weatherlink.com 1.10,2013-05-01 08:14:00,
2013-05-01 04:29:00,43.9,34.0,30.35,North,349,0.0,-999.0,67,-99.99,,,0.00,weatherlink.com 1.10,2013-05-01 08:29:00,
2013-05-01 04:44:00,43.4,33.0,30.35,North,349,0.0,-999.0,67,-99.99,,,0.00,weatherlink.com 1.10,2013-05-01 08:44:00,
2013-05-01 04:59:00,43.2,33.0,30.35,North,349,0.0,-999.0,68,-99.99,,,0.00,weatherlink.com 1.10,2013-05-01 08:59:00,
2013-05-01 05:14:00,42.9,33.0,30.36,North,349,0.0,-999.0,69,-99.99,,,0.00,weatherlink.com 1.10,2013-05-01 09:14:00,
2013-05-01 05:29:00,42.5,33.0,30.36,North,349,0.0,-999.0,70,-99.99,,,0.00,weatherlink.com 1.10,2013-05-01 09:29:00,
2013-05-01 05:44:00,42.5,33.0,30.37,North,349,0.0,-999.0,70,-99.99,,,0.00,weatherlink.com 1.10,2013-05-01 09:44:00,
2013-05-01 05:59:00,42.3,34.0,30.37,North,349,0.0,-999.0,71,-99.99,,,0.00,weatherlink.com 1.10,2013-05-01 09:59:00,
2013-05-01 06:14:00,42.4,34.0,30.38,North,349,0.0,-999.0,71,-99.99,,,0.00,weatherlink.com 1.10,2013-05-01 10:14:00,
2013-05-01 06:29:00,42.7,33.0,30.38,North,349,0.0,-999.0,69,-99.99,,,0.00,weatherlink.com 1.10,2013-05-01 10:29:00,
2013-05-01 06:44:00,42.5,34.0,30.38,North,349,0.0,-999.0,71,-99.99,,,0.00,weatherlink.com 1.10,2013-05-01 10:44:00,
2013-05-01 06:59:00,43.3,33.0,30.38,North,349,0.0,-999.0,68,-99.99,,,0.00,weatherlink.com 1.10,2013-05-01 10:59:00,
2013-05-01 07:14:00,44.0,34.0,30.38,North,349,0.0,-999.0,68,-99.99,,,0.00,weatherlink.com 1.10,2013-05-01 11:14:00,
2013-05-01 07:29:00,45.2,34.0,30.39,North,349,0.0,-999.0,66,-99.99,,,0.00,weatherlink.com 1.10,2013-05-01 11:29:00,
2013-05-01 07:44:00,46.9,35.0,30.39,North,349,0.0,-999.0,64,-99.99,,,0.00,weatherlink.com 1.10,2013-05-01 11:44:00,
2013-05-01 08:00:00,48.2,35.0,30.40,North,349,0.0,-999.0,61,-99.99,,,0.00,weatherlink.com 1.10,2013-05-01 12:00:00,
2013-05-01 08:15:00,49.8,36.0,30.40,North,349,0.0,-999.0,60,-99.99,,,0.00,weatherlink.com 1.10,2013-05-01 12:15:00,
2013-05-01 08:30:00,51.4,36.0,30.39,North,349,0.0,-999.0,57,-99.99,,,0.00,weatherlink.com 1.10,2013-05-01 12:30:00,
2013-05-01 08:45:00,53.5,37.0,30.40,North,349,0.0,-999.0,54,-99.99,,,0.00,weatherlink.com 1.10,2013-05-01 12:45:00,
2013-05-01 09:00:00,56.0,36.0,30.40,NW,306,0.0,-999.0,47,-99.99,,,0.00,weatherlink.com 1.10,2013-05-01 13:00:00,
2013-05-01 09:14:00,57.7,33.0,30.40,WSW,253,0.0,-999.0,40,-99.99,,,0.00,weatherlink.com 1.10,2013-05-01 13:14:00,
2013-05-01 09:30:00,58.7,34.0,30.40,SW,225,0.0,-999.0,39,-99.99,,,0.00,weatherlink.com 1.10,2013-05-01 13:30:00,
2013-05-01 09:45:00,59.8,33.0,30.40,SW,223,0.0,-999.0,37,-99.99,,,0.00,weatherlink.com 1.10,2013-05-01 13:45:00,
2013-05-01 09:59:00,61.2,35.0,30.40,SW,226,0.0,-999.0,37,-99.99,,,0.00,weatherlink.com 1.10,2013-05-01 13:59:00,
2013-05-01 10:14:00,62.5,34.0,30.40,SW,224,0.0,-999.0,35,-99.99,,,0.00,weatherlink.com 1.10,2013-05-01 14:14:00,
2013-05-01 10:30:00,63.9,37.0,30.40,SSW,198,2.0,-999.0,37,-99.99,,,0.00,weatherlink.com 1.10,2013-05-01 14:30:00,
2013-05-01 10:44:00,65.2,36.0,30.39,WSW,254,2.0,-999.0,34,-99.99,,,0.00,weatherlink.com 1.10,2013-05-01 14:44:00,
2013-05-01 10:59:00,66.1,37.0,30.39,ENE,77,1.0,-999.0,34,-99.99,,,0.00,weatherlink.com 1.10,2013-05-01 14:59:00,
2013-05-01 11:14:00,67.8,38.0,30.38,NW,314,0.0,-999.0,33,-99.99,,,0.00,weatherlink.com 1.10,2013-05-01 15:14:00,
2013-05-01 11:29:00,68.9,38.0,30.38,West,272,1.0,-999.0,32,-99.99,,,0.00,weatherlink.com 1.10,2013-05-01 15:29:00,
2013-05-01 11:44:00,69.7,37.0,30.37,ESE,110,0.0,-999.0,30,-99.99,,,0.00,weatherlink.com 1.10,2013-05-01 15:44:00,
2013-05-01 12:00:00,70.1,38.0,30.37,SSW,198,0.0,-999.0,31,-99.99,,,0.00,weatherlink.com 1.10,2013-05-01 16:00:00,
2013-05-01 12:15:00,71.3,38.0,30.36,SW,223,0.0,-999.0,30,-99.99,,,0.00,weatherlink.com 1.10,2013-05-01 16:15:00,
2013-05-01 12:30:00,71.6,39.0,30.35,NNE,23,2.0,-999.0,30,-99.99,,,0.00,weatherlink.com 1.10,2013-05-01 16:30:00,
2013-05-01 12:45:00,73.3,36.0,30.35,West,273,0.0,-999.0,26,-99.99,,,0.00,weatherlink.com 1.10,2013-05-01 16:45:00,
2013-05-01 13:00:00,73.2,35.0,30.34,SSE,164,2.0,-999.0,25,-99.99,,,0.00,weatherlink.com 1.10,2013-05-01 17:00:00,
2013-05-01 13:15:00,74.5,36.0,30.34,ESE,121,1.0,-999.0,25,-99.99,,,0.00,weatherlink.com 1.10,2013-05-01 17:15:00,
2013-05-01 13:30:00,75.6,36.0,30.34,WSW,237,0.0,-999.0,24,-99.99,,,0.00,weatherlink.com 1.10,2013-05-01 17:30:00,
2013-05-01 13:45:00,75.2,37.0,30.34,West,266,0.0,-999.0,25,-99.99,,,0.00,weatherlink.com 1.10,2013-05-01 17:45:00,
2013-05-01 14:00:00,75.2,36.0,30.33,South,191,1.0,-999.0,24,-99.99,,,0.00,weatherlink.com 1.10,2013-05-01 18:00:00,
2013-05-01 14:15:00,76.8,36.0,30.32,WNW,302,2.0,-999.0,23,-99.99,,,0.00,weatherlink.com 1.10,2013-05-01 18:15:00,
2013-05-01 14:30:00,77.2,35.0,30.32,ESE,111,0.0,-999.0,22,-99.99,,,0.00,weatherlink.com 1.10,2013-05-01 18:30:00,
2013-05-01 14:45:00,77.9,37.0,30.31,WNW,300,2.0,-999.0,23,-99.99,,,0.00,weatherlink.com 1.10,2013-05-01 18:45:00,
2013-05-01 15:00:00,77.7,36.0,30.31,WNW,298,3.0,-999.0,22,-99.99,,,0.00,weatherlink.com 1.10,2013-05-01 19:00:00,
2013-05-01 15:15:00,77.0,37.0,30.31,SSW,198,0.0,-999.0,24,-99.99,,,0.00,weatherlink.com 1.10,2013-05-01 19:15:00,
2013-05-01 15:30:00,77.1,36.0,30.31,WNW,292,1.0,-999.0,23,-99.99,,,0.00,weatherlink.com 1.10,2013-05-01 19:30:00,
2013-05-01 15:45:00,77.8,36.0,30.30,WSW,242,0.0,-999.0,22,-99.99,,,0.00,weatherlink.com 1.10,2013-05-01 19:45:00,
2013-05-01 16:00:00,78.8,37.0,30.30,NNE,28,0.0,-999.0,22,-99.99,,,0.00,weatherlink.com 1.10,2013-05-01 20:00:00,
2013-05-01 16:15:00,78.6,35.0,30.30,SW,217,4.0,-999.0,21,-99.99,,,0.00,weatherlink.com 1.10,2013-05-01 20:15:00,
2013-05-01 16:30:00,78.1,36.0,30.30,SSW,197,4.0,-999.0,22,-99.99,,,0.00,weatherlink.com 1.10,2013-05-01 20:30:00,
2013-05-01 16:45:00,77.3,36.0,30.30,SSW,207,2.0,-999.0,22,-99.99,,,0.00,weatherlink.com 1.10,2013-05-01 20:45:00,
2013-05-01 17:00:00,77.6,35.0,30.30,SSW,194,3.0,-999.0,21,-99.99,,,0.00,weatherlink.com 1.10,2013-05-01 21:00:00,
2013-05-01 17:16:00,75.6,35.0,30.30,SSW,198,4.0,-999.0,23,-99.99,,,0.00,weatherlink.com 1.10,2013-05-01 21:16:00,
2013-05-01 17:30:00,75.3,35.0,30.31,SSW,194,1.0,-999.0,23,-99.99,,,0.00,weatherlink.com 1.10,2013-05-01 21:30:00,
2013-05-01 17:45:00,75.1,35.0,30.30,SW,214,0.0,-999.0,23,-99.99,,,0.00,weatherlink.com 1.10,2013-05-01 21:45:00,
2013-05-01 18:01:00,75.9,35.0,30.31,WNW,287,2.0,-999.0,23,-99.99,,,0.00,weatherlink.com 1.10,2013-05-01 22:01:00,
2013-05-01 18:16:00,76.0,34.0,30.30,SSW,213,1.0,-999.0,22,-99.99,,,0.00,weatherlink.com 1.10,2013-05-01 22:16:00,
2013-05-01 18:31:00,75.1,35.0,30.30,WSW,249,2.0,-999.0,23,-99.99,,,0.00,weatherlink.com 1.10,2013-05-01 22:31:00,
2013-05-01 18:46:00,73.8,34.0,30.31,WSW,241,0.0,-999.0,23,-99.99,,,0.00,weatherlink.com 1.10,2013-05-01 22:46:00,
2013-05-01 19:01:00,72.8,34.0,30.31,SSW,204,0.0,-999.0,24,-99.99,,,0.00,weatherlink.com 1.10,2013-05-01 23:01:00,
2013-05-01 19:16:00,72.1,35.0,30.32,SSW,204,0.0,-999.0,26,-99.99,,,0.00,weatherlink.com 1.10,2013-05-01 23:16:00,
2013-05-01 19:31:00,71.0,35.0,30.32,SSW,204,0.0,-999.0,27,-99.99,,,0.00,weatherlink.com 1.10,2013-05-01 23:31:00,
2013-05-01 19:46:00,69.2,35.0,30.32,SSW,205,0.0,-999.0,28,-99.99,,,0.00,weatherlink.com 1.10,2013-05-01 23:46:00,
2013-05-01 20:01:00,67.6,34.0,30.32,West,271,0.0,-999.0,29,-99.99,,,0.00,weatherlink.com 1.10,2013-05-02 00:01:00,
2013-05-01 20:16:00,66.3,33.0,30.33,West,273,0.0,-999.0,29,-99.99,,,0.00,weatherlink.com 1.10,2013-05-02 00:16:00,
2013-05-01 20:31:00,65.5,32.0,30.34,West,273,0.0,-999.0,29,-99.99,,,0.00,weatherlink.com 1.10,2013-05-02 00:31:00,
2013-05-01 20:46:00,65.0,33.0,30.35,NNW,348,0.0,-999.0,30,-99.99,,,0.00,weatherlink.com 1.10,2013-05-02 00:46:00,
2013-05-01 21:01:00,64.6,33.0,30.35,SSW,200,0.0,-999.0,31,-99.99,,,0.00,weatherlink.com 1.10,2013-05-02 01:01:00,
2013-05-01 21:16:00,63.8,34.0,30.36,SSW,212,0.0,-999.0,33,-99.99,,,0.00,weatherlink.com 1.10,2013-05-02 01:16:00,
2013-05-01 21:31:00,63.3,34.0,30.36,SSW,212,0.0,-999.0,34,-99.99,,,0.00,weatherlink.com 1.10,2013-05-02 01:31:00,
2013-05-01 21:46:00,62.7,35.0,30.36,SSW,211,0.0,-999.0,35,-99.99,,,0.00,weatherlink.com 1.10,2013-05-02 01:46:00,
2013-05-01 22:01:00,62.0,35.0,30.36,SSW,212,0.0,-999.0,36,-99.99,,,0.00,weatherlink.com 1.10,2013-05-02 02:01:00,
2013-05-01 22:16:00,60.5,35.0,30.36,SSW,212,0.0,-999.0,39,-99.99,,,0.00,weatherlink.com 1.10,2013-05-02 02:16:00,
2013-05-01 22:31:00,59.4,35.0,30.36,SSW,211,0.0,-999.0,41,-99.99,,,0.00,weatherlink.com 1.10,2013-05-02 02:31:00,
2013-05-01 22:46:00,58.4,35.0,30.36,SSW,212,0.0,-999.0,42,-99.99,,,0.00,weatherlink.com 1.10,2013-05-02 02:46:00,
2013-05-01 23:01:00,57.9,36.0,30.37,SSW,212,0.0,-999.0,44,-99.99,,,0.00,weatherlink.com 1.10,2013-05-02 03:01:00,
2013-05-01 23:16:00,57.6,35.0,30.37,SSW,212,0.0,-999.0,43,-99.99,,,0.00,weatherlink.com 1.10,2013-05-02 03:16:00,
2013-05-01 23:31:00,56.8,35.0,30.37,SSW,212,0.0,-999.0,45,-99.99,,,0.00,weatherlink.com 1.10,2013-05-02 03:31:00,
2013-05-01 23:46:00,56.1,35.0,30.37,SSW,212,0.0,-999.0,46,-99.99,,,0.00,weatherlink.com 1.10,2013-05-02 03:46:00,